createdAt,value
2022-10-07T00:00:42.777Z,2.80
2022-10-07T00:01:42.881Z,5.00
2022-10-07T00:02:42.850Z,2.90
2022-10-07T00:03:42.770Z,3.30
2022-10-07T00:04:42.765Z,4.00
2022-10-07T00:05:42.756Z,3.60
2022-10-07T00:06:42.756Z,3.40
2022-10-07T00:07:43.070Z,4.60
2022-10-07T00:08:42.746Z,3.50
2022-10-07T00:09:42.748Z,3.50
2022-10-07T00:10:42.741Z,4.50
2022-10-07T00:11:42.733Z,3.70
2022-10-07T00:12:42.729Z,4.80
2022-10-07T00:13:42.724Z,6.00
2022-10-07T00:14:42.722Z,5.30
2022-10-07T00:15:42.723Z,4.10
2022-10-07T00:16:42.796Z,4.90
2022-10-07T00:17:43.060Z,5.60
2022-10-07T00:18:42.721Z,4.40
2022-10-07T00:19:42.708Z,3.40
2022-10-07T00:20:42.700Z,4.30
2022-10-07T00:21:42.698Z,3.40
2022-10-07T00:22:42.695Z,3.90
2022-10-07T00:23:42.687Z,4.30
2022-10-07T00:24:42.684Z,3.80
2022-10-07T00:25:42.686Z,3.80
2022-10-07T00:26:42.676Z,3.40
2022-10-07T00:27:42.966Z,5.20
2022-10-07T00:28:42.813Z,3.30
2022-10-07T00:29:42.671Z,3.20
2022-10-07T00:30:42.718Z,2.90
2022-10-07T00:31:42.658Z,4.10
2022-10-07T00:32:42.658Z,3.60
2022-10-07T00:33:42.696Z,3.50
2022-10-07T00:34:42.854Z,3.40
2022-10-07T00:35:42.647Z,3.00
2022-10-07T00:36:42.639Z,4.50
2022-10-07T00:37:43.074Z,3.70
2022-10-07T00:38:42.630Z,3.60
2022-10-07T00:39:42.629Z,4.20
2022-10-07T00:40:42.624Z,4.60
2022-10-07T00:41:42.622Z,3.30
2022-10-07T00:42:42.611Z,3.70
2022-10-07T00:43:42.612Z,4.40
2022-10-07T00:44:42.608Z,5.00
2022-10-07T00:45:42.665Z,3.60
2022-10-07T00:46:42.600Z,3.80
2022-10-07T00:47:42.924Z,4.40
2022-10-07T00:48:42.590Z,4.20
2022-10-07T00:49:42.586Z,4.00
2022-10-07T00:50:42.600Z,4.30
2022-10-07T00:51:42.579Z,4.40
2022-10-07T00:52:42.574Z,3.90
2022-10-07T00:53:42.572Z,3.80
2022-10-07T00:54:42.568Z,3.20
2022-10-07T00:55:42.563Z,3.30
2022-10-07T00:56:42.559Z,4.70
2022-10-07T00:57:42.795Z,4.00
2022-10-07T00:58:42.553Z,4.70
2022-10-07T00:59:42.549Z,3.70
2022-10-07T01:00:42.544Z,3.90
2022-10-07T01:01:42.583Z,3.60
2022-10-07T01:02:42.656Z,4.60
2022-10-07T01:03:42.534Z,4.00
2022-10-07T01:04:42.540Z,3.80
2022-10-07T01:05:42.528Z,3.30
2022-10-07T01:06:42.539Z,2.80
2022-10-07T01:07:42.839Z,3.40
2022-10-07T01:08:42.513Z,3.40
2022-10-07T01:09:42.512Z,3.90
2022-10-07T01:10:42.503Z,3.60
2022-10-07T01:11:42.502Z,3.20
2022-10-07T01:12:42.496Z,3.10
2022-10-07T01:13:42.496Z,3.30
2022-10-07T01:14:42.495Z,3.00
2022-10-07T01:15:42.489Z,4.20
2022-10-07T01:16:42.579Z,4.50
2022-10-07T01:17:42.744Z,4.00
2022-10-07T01:18:42.475Z,2.90
2022-10-07T01:19:42.471Z,3.10
2022-10-07T01:20:42.470Z,3.70
2022-10-07T01:21:42.464Z,3.00
2022-10-07T01:22:42.478Z,3.90
2022-10-07T01:23:42.458Z,5.50
2022-10-07T01:24:42.453Z,3.50
2022-10-07T01:25:42.449Z,4.60
2022-10-07T01:26:42.445Z,4.30
2022-10-07T01:27:42.795Z,5.70
2022-10-07T01:28:42.490Z,4.40
2022-10-07T01:29:42.432Z,3.10
2022-10-07T01:30:42.543Z,3.20
2022-10-07T01:31:42.424Z,3.60
2022-10-07T01:32:42.422Z,3.20
2022-10-07T01:33:42.416Z,3.20
2022-10-07T01:34:42.413Z,3.40
2022-10-07T01:35:42.416Z,2.60
2022-10-07T01:36:42.406Z,3.80
2022-10-07T01:37:42.691Z,3.90
2022-10-07T01:38:42.422Z,3.70
2022-10-07T01:39:42.393Z,2.80
2022-10-07T01:40:42.388Z,2.80
2022-10-07T01:41:42.385Z,2.90
2022-10-07T01:42:42.379Z,3.10
2022-10-07T01:43:42.376Z,3.00
2022-10-07T01:44:42.389Z,3.00
2022-10-07T01:45:42.373Z,3.30
2022-10-07T01:46:42.371Z,2.90
2022-10-07T01:47:42.678Z,2.80
2022-10-07T01:48:42.358Z,3.00
2022-10-07T01:49:42.351Z,3.20
2022-10-07T01:50:42.348Z,2.50
2022-10-07T01:51:42.344Z,3.50
2022-10-07T01:52:42.345Z,3.20
2022-10-07T01:53:42.344Z,3.10
2022-10-07T01:54:42.356Z,3.30
2022-10-07T01:55:42.328Z,3.00
2022-10-07T01:56:42.328Z,3.50
2022-10-07T01:57:42.727Z,4.60
2022-10-07T01:58:42.320Z,3.60
2022-10-07T01:59:42.313Z,3.30
2022-10-07T02:00:42.315Z,2.90
2022-10-07T02:01:42.419Z,3.40
2022-10-07T02:02:42.302Z,2.60
2022-10-07T02:03:42.390Z,4.50
2022-10-07T02:04:42.293Z,3.30
2022-10-07T02:05:42.290Z,3.10
2022-10-07T02:06:42.286Z,5.50
2022-10-07T02:07:42.628Z,3.50
2022-10-07T02:08:42.276Z,3.00
2022-10-07T02:09:42.272Z,4.70
2022-10-07T02:10:42.290Z,3.90
2022-10-07T02:11:42.266Z,3.40
2022-10-07T02:12:42.260Z,4.60
2022-10-07T02:13:42.255Z,3.70
2022-10-07T02:14:42.259Z,4.80
2022-10-07T02:15:42.283Z,4.30
2022-10-07T02:16:42.244Z,3.60
2022-10-07T02:17:42.607Z,3.30
2022-10-07T02:18:42.234Z,3.90
2022-10-07T02:19:42.232Z,3.50
2022-10-07T02:20:42.228Z,3.20
2022-10-07T02:21:42.223Z,4.00
2022-10-07T02:22:42.223Z,3.20
2022-10-07T02:23:42.214Z,2.90
2022-10-07T02:24:42.213Z,3.60
2022-10-07T02:25:42.207Z,3.50
2022-10-07T02:26:42.222Z,4.20
2022-10-07T02:27:42.632Z,3.30
2022-10-07T02:28:42.339Z,3.50
2022-10-07T02:29:42.192Z,4.40
2022-10-07T02:30:42.237Z,5.00
2022-10-07T02:31:42.182Z,4.00
2022-10-07T02:32:42.186Z,4.90
2022-10-07T02:33:42.180Z,4.30
2022-10-07T02:34:42.172Z,4.80
2022-10-07T02:35:42.165Z,4.60
2022-10-07T02:36:42.164Z,3.50
2022-10-07T02:37:42.511Z,3.60
2022-10-07T02:38:42.157Z,3.40
2022-10-07T02:39:42.149Z,4.10
2022-10-07T02:40:42.147Z,3.20
2022-10-07T02:41:42.145Z,4.30
2022-10-07T02:42:42.163Z,3.90
2022-10-07T02:43:42.134Z,3.50
2022-10-07T02:44:42.132Z,3.40
2022-10-07T02:45:42.125Z,4.40
2022-10-07T02:46:42.153Z,4.00
2022-10-07T02:47:42.483Z,3.20
2022-10-07T02:48:42.134Z,3.10
2022-10-07T02:49:42.108Z,3.00
2022-10-07T02:50:42.104Z,3.40
2022-10-07T02:51:42.100Z,3.50
2022-10-07T02:52:42.102Z,3.30
2022-10-07T02:53:42.093Z,4.60
2022-10-07T02:54:42.090Z,3.60
2022-10-07T02:55:42.086Z,4.60
2022-10-07T02:56:42.083Z,4.20
2022-10-07T02:57:42.391Z,4.80
2022-10-07T02:58:42.096Z,5.00
2022-10-07T02:59:42.072Z,3.50
2022-10-07T03:00:42.541Z,4.00
2022-10-07T03:01:42.202Z,4.40
2022-10-07T03:02:42.069Z,4.40
2022-10-07T03:03:42.174Z,3.70
2022-10-07T03:04:42.050Z,5.20
2022-10-07T03:05:42.045Z,3.60
2022-10-07T03:06:42.041Z,3.70
2022-10-07T03:07:42.496Z,3.60
2022-10-07T03:08:42.037Z,3.50
2022-10-07T03:09:42.027Z,3.20
2022-10-07T03:10:42.023Z,5.00
2022-10-07T03:11:42.018Z,3.30
2022-10-07T03:12:42.015Z,3.40
2022-10-07T03:13:42.012Z,3.70
2022-10-07T03:14:42.028Z,3.20
2022-10-07T03:15:42.774Z,3.50
2022-10-07T03:16:42.007Z,3.40
2022-10-07T03:17:42.438Z,4.00
2022-10-07T03:18:41.991Z,4.20
2022-10-07T03:19:41.990Z,5.00
2022-10-07T03:20:41.990Z,4.20
2022-10-07T03:21:41.985Z,5.40
2022-10-07T03:22:41.974Z,4.90
2022-10-07T03:23:41.968Z,4.80
2022-10-07T03:24:41.967Z,4.60
2022-10-07T03:25:41.963Z,3.80
2022-10-07T03:26:41.964Z,3.00
2022-10-07T03:27:42.300Z,5.20
2022-10-07T03:28:41.989Z,3.80
2022-10-07T03:29:41.948Z,3.90
2022-10-07T03:30:41.964Z,3.00
2022-10-07T03:31:42.016Z,4.00
2022-10-07T03:32:41.931Z,3.40
2022-10-07T03:33:41.930Z,3.70
2022-10-07T03:34:41.926Z,3.50
2022-10-07T03:35:41.922Z,3.30
2022-10-07T03:36:41.926Z,3.30
2022-10-07T03:37:42.206Z,3.30
2022-10-07T03:38:41.907Z,3.40
2022-10-07T03:39:41.903Z,5.30
2022-10-07T03:40:41.900Z,4.90
2022-10-07T03:41:41.897Z,6.80
2022-10-07T03:42:41.891Z,5.80
2022-10-07T03:43:41.887Z,5.80
2022-10-07T03:44:41.881Z,5.80
2022-10-07T03:45:41.880Z,7.90
2022-10-07T03:46:41.936Z,8.20
2022-10-07T03:47:42.153Z,6.90
2022-10-07T03:48:41.868Z,5.40
2022-10-07T03:49:41.863Z,4.40
2022-10-07T03:50:41.861Z,5.40
2022-10-07T03:51:41.854Z,6.20
2022-10-07T03:52:41.852Z,5.50
2022-10-07T03:53:41.850Z,4.20
2022-10-07T03:54:41.839Z,5.30
2022-10-07T03:55:41.837Z,5.50
2022-10-07T03:56:41.837Z,4.40
2022-10-07T03:57:42.158Z,6.90
2022-10-07T03:58:41.827Z,6.20
2022-10-07T03:59:41.819Z,4.60
2022-10-07T04:00:41.815Z,5.00
2022-10-07T04:01:41.897Z,5.50
2022-10-07T04:02:41.887Z,6.20
2022-10-07T04:03:41.802Z,5.90
2022-10-07T04:04:41.800Z,3.90
2022-10-07T04:05:41.794Z,4.50
2022-10-07T04:06:41.792Z,4.20
2022-10-07T04:07:42.144Z,4.10
2022-10-07T04:08:41.789Z,4.60
2022-10-07T04:09:41.782Z,4.60
2022-10-07T04:10:41.774Z,4.40
2022-10-07T04:11:41.775Z,4.90
2022-10-07T04:12:41.773Z,4.50
2022-10-07T04:13:41.766Z,4.30
2022-10-07T04:14:41.757Z,5.00
2022-10-07T04:15:41.753Z,4.50
2022-10-07T04:16:41.843Z,4.70
2022-10-07T04:17:41.743Z,4.90
2022-10-07T04:18:41.851Z,4.70
2022-10-07T04:19:41.736Z,5.00
2022-10-07T04:20:41.747Z,4.60
2022-10-07T04:21:41.734Z,4.50
2022-10-07T04:22:41.735Z,4.30
2022-10-07T04:23:41.721Z,4.30
2022-10-07T04:24:41.718Z,5.00
2022-10-07T04:25:41.713Z,4.30
2022-10-07T04:26:41.710Z,3.90
2022-10-07T04:27:51.622Z,4.20
2022-10-07T04:28:41.729Z,5.50
2022-10-07T04:29:41.695Z,3.80
2022-10-07T04:30:41.690Z,4.60
2022-10-07T04:31:41.725Z,3.60
2022-10-07T04:32:41.685Z,3.80
2022-10-07T04:33:41.677Z,3.80
2022-10-07T04:34:41.729Z,3.90
2022-10-07T04:35:41.668Z,4.00
2022-10-07T04:36:41.666Z,5.00
2022-10-07T04:37:41.751Z,3.80
2022-10-07T04:38:41.654Z,3.90
2022-10-07T04:39:59.736Z,4.70
2022-10-07T04:40:41.654Z,3.50
2022-10-07T04:41:41.649Z,3.40
2022-10-07T04:42:41.640Z,3.90
2022-10-07T04:43:41.637Z,4.40
2022-10-07T04:44:41.633Z,4.10
2022-10-07T04:45:41.642Z,4.10
2022-10-07T04:46:41.688Z,3.40
2022-10-07T04:47:41.625Z,4.00
2022-10-07T04:48:41.612Z,5.80
2022-10-07T04:49:41.611Z,3.80
2022-10-07T04:50:41.624Z,3.90
2022-10-07T04:51:41.598Z,4.70
2022-10-07T04:52:41.600Z,4.40
2022-10-07T04:53:41.596Z,4.30
2022-10-07T04:54:41.592Z,4.90
2022-10-07T04:55:41.585Z,4.80
2022-10-07T04:56:41.580Z,3.30
2022-10-07T04:57:41.576Z,3.60
2022-10-07T04:58:41.574Z,4.30
2022-10-07T04:59:43.098Z,3.70
2022-10-07T05:00:41.656Z,4.40
2022-10-07T05:01:41.641Z,4.60
2022-10-07T05:02:41.552Z,3.70
2022-10-07T05:03:41.553Z,3.00
2022-10-07T05:04:41.552Z,4.70
2022-10-07T05:05:41.545Z,3.80
2022-10-07T05:06:41.559Z,3.20
2022-10-07T05:07:41.533Z,3.30
2022-10-07T05:08:41.528Z,3.60
2022-10-07T05:09:41.535Z,3.00
2022-10-07T05:10:41.522Z,3.80
2022-10-07T05:11:41.514Z,3.40
2022-10-07T05:12:41.511Z,3.80
2022-10-07T05:13:41.522Z,3.40
2022-10-07T05:14:41.504Z,3.00
2022-10-07T05:15:41.497Z,4.60
2022-10-07T05:16:41.577Z,3.70
2022-10-07T05:17:41.498Z,5.60
2022-10-07T05:18:41.487Z,5.20
2022-10-07T05:19:41.483Z,4.70
2022-10-07T05:20:41.478Z,4.10
2022-10-07T05:21:41.491Z,4.30
2022-10-07T05:22:41.486Z,3.10
2022-10-07T05:23:41.812Z,4.60
2022-10-07T05:24:41.458Z,3.50
2022-10-07T05:25:41.452Z,3.90
2022-10-07T05:26:41.449Z,4.20
2022-10-07T05:27:41.444Z,4.70
2022-10-07T05:28:41.553Z,4.00
2022-10-07T05:29:41.436Z,4.50
2022-10-07T05:30:41.431Z,6.50
2022-10-07T05:31:41.444Z,3.70
2022-10-07T05:32:41.423Z,5.50
2022-10-07T05:33:41.422Z,3.10
2022-10-07T05:34:41.415Z,4.20
2022-10-07T05:35:41.411Z,3.10
2022-10-07T05:36:41.407Z,3.20
2022-10-07T05:37:41.406Z,4.90
2022-10-07T05:38:41.414Z,3.70
2022-10-07T05:39:41.393Z,3.20
2022-10-07T05:40:41.388Z,5.40
2022-10-07T05:41:45.689Z,3.90
2022-10-07T05:42:41.378Z,6.50
2022-10-07T05:43:41.377Z,3.10
2022-10-07T05:44:41.371Z,4.80
2022-10-07T05:45:41.381Z,4.10
2022-10-07T05:46:41.361Z,3.30
2022-10-07T05:47:41.360Z,4.90
2022-10-07T05:48:41.354Z,5.60
2022-10-07T05:49:41.352Z,3.90
2022-10-07T05:50:41.342Z,3.60
2022-10-07T05:51:41.343Z,4.00
2022-10-07T05:52:41.338Z,3.70
2022-10-07T05:53:41.479Z,3.70
2022-10-07T05:54:41.344Z,3.40
2022-10-07T05:55:41.327Z,4.30
2022-10-07T05:56:41.319Z,3.60
2022-10-07T05:57:41.317Z,5.00
2022-10-07T05:58:41.320Z,4.20
2022-10-07T05:59:41.306Z,4.60
2022-10-07T06:00:41.302Z,5.20
2022-10-07T06:01:41.351Z,6.80
2022-10-07T06:02:41.427Z,5.00
2022-10-07T06:03:41.292Z,5.30
2022-10-07T06:04:41.284Z,4.30
2022-10-07T06:05:41.279Z,5.20
2022-10-07T06:06:41.277Z,4.50
2022-10-07T06:07:41.271Z,4.10
2022-10-07T06:08:41.267Z,3.20
2022-10-07T06:09:41.267Z,4.80
2022-10-07T06:10:41.275Z,4.20
2022-10-07T06:11:41.252Z,5.80
2022-10-07T06:12:41.249Z,5.50
2022-10-07T06:13:41.247Z,4.80
2022-10-07T06:14:41.240Z,5.50
2022-10-07T06:15:41.235Z,4.90
2022-10-07T06:16:41.331Z,7.70
2022-10-07T06:17:41.227Z,5.70
2022-10-07T06:18:41.222Z,4.60
2022-10-07T06:19:41.220Z,5.20
2022-10-07T06:20:41.215Z,6.60
2022-10-07T06:21:41.210Z,4.40
2022-10-07T06:22:41.204Z,5.00
2022-10-07T06:23:41.557Z,5.50
2022-10-07T06:24:41.199Z,4.50
2022-10-07T06:25:41.198Z,5.80
2022-10-07T06:26:41.207Z,6.10
2022-10-07T06:27:41.188Z,6.00
2022-10-07T06:28:41.303Z,5.10
2022-10-07T06:29:41.281Z,5.00
2022-10-07T06:30:41.221Z,5.60
2022-10-07T06:31:41.167Z,5.70
2022-10-07T06:32:41.161Z,5.30
2022-10-07T06:33:41.163Z,7.10
2022-10-07T06:34:41.151Z,6.50
2022-10-07T06:35:41.148Z,7.80
2022-10-07T06:36:41.146Z,7.30
2022-10-07T06:37:41.141Z,6.10
2022-10-07T06:38:41.135Z,5.60
2022-10-07T06:39:41.133Z,4.30
2022-10-07T06:40:41.127Z,6.20
2022-10-07T06:41:41.127Z,6.50
2022-10-07T06:42:41.181Z,6.50
2022-10-07T06:43:41.115Z,5.80
2022-10-07T06:44:41.110Z,6.50
2022-10-07T06:45:41.154Z,7.60
2022-10-07T06:46:41.106Z,5.50
2022-10-07T06:47:41.103Z,6.60
2022-10-07T06:48:41.094Z,6.30
2022-10-07T06:49:41.092Z,5.80
2022-10-07T06:50:41.090Z,7.30
2022-10-07T06:51:41.083Z,5.90
2022-10-07T06:52:43.482Z,6.50
2022-10-07T06:53:41.076Z,6.60
2022-10-07T06:54:41.067Z,7.50
2022-10-07T06:55:41.065Z,7.30
2022-10-07T06:56:41.059Z,8.10
2022-10-07T06:57:56.033Z,6.60
2022-10-07T06:58:41.086Z,7.40
2022-10-07T06:59:41.047Z,6.40
2022-10-07T07:00:41.041Z,7.00
2022-10-07T07:01:41.117Z,6.90
2022-10-07T07:02:41.103Z,6.80
2022-10-07T07:03:41.036Z,8.10
2022-10-07T07:04:41.081Z,7.20
2022-10-07T07:05:44.471Z,6.90
2022-10-07T07:06:41.016Z,9.00
2022-10-07T07:07:41.016Z,7.60
2022-10-07T07:08:41.023Z,7.80
2022-10-07T07:09:41.006Z,8.00
2022-10-07T07:10:40.999Z,8.20
2022-10-07T07:11:41.004Z,9.10
2022-10-07T07:12:41.098Z,7.40
2022-10-07T07:13:43.861Z,8.60
2022-10-07T07:14:41.011Z,8.10
2022-10-07T07:15:40.985Z,7.80
2022-10-07T07:16:41.037Z,8.60
2022-10-07T07:17:40.975Z,5.80
2022-10-07T07:18:40.968Z,7.80
2022-10-07T07:19:40.966Z,9.00
2022-10-07T07:20:40.963Z,9.40
2022-10-07T07:21:40.985Z,8.50
2022-10-07T07:22:40.952Z,8.60
2022-10-07T07:23:40.953Z,8.30
2022-10-07T07:24:41.046Z,8.50
2022-10-07T07:25:40.941Z,8.20
2022-10-07T07:26:40.939Z,8.40
2022-10-07T07:27:40.937Z,6.70
2022-10-07T07:28:40.938Z,8.80
2022-10-07T07:29:40.926Z,9.50
2022-10-07T07:30:41.068Z,8.30
2022-10-07T07:31:40.920Z,8.00
2022-10-07T07:32:40.914Z,7.80
2022-10-07T07:33:40.913Z,8.00
2022-10-07T07:34:41.019Z,8.60
2022-10-07T07:35:40.909Z,7.50
2022-10-07T07:36:40.903Z,7.00
2022-10-07T07:37:40.933Z,7.80
2022-10-07T07:38:40.892Z,8.30
2022-10-07T07:39:40.890Z,9.70
2022-10-07T07:40:40.886Z,7.90
2022-10-07T07:41:40.883Z,9.50
2022-10-07T07:42:40.876Z,7.40
2022-10-07T07:43:40.873Z,6.10
2022-10-07T07:44:40.872Z,5.90
2022-10-07T07:45:40.892Z,8.10
2022-10-07T07:46:40.888Z,8.00
2022-10-07T07:47:40.862Z,8.20
2022-10-07T07:48:40.859Z,8.00
2022-10-07T07:49:40.855Z,8.00
2022-10-07T07:50:40.858Z,7.70
2022-10-07T07:51:40.848Z,9.40
2022-10-07T07:52:40.847Z,8.20
2022-10-07T07:53:40.849Z,8.40
2022-10-07T07:54:40.838Z,9.30
2022-10-07T07:55:40.837Z,8.10
2022-10-07T07:56:40.832Z,10.80
2022-10-07T07:57:40.835Z,8.10
2022-10-07T07:58:40.828Z,6.70
2022-10-07T07:59:40.826Z,10.60
2022-10-07T08:00:40.834Z,8.40
2022-10-07T08:01:40.904Z,9.00
2022-10-07T08:02:40.883Z,9.80
2022-10-07T08:03:40.814Z,7.70
2022-10-07T08:04:40.808Z,8.90
2022-10-07T08:05:40.812Z,8.50
2022-10-07T08:06:40.808Z,9.50
2022-10-07T08:07:40.808Z,9.20
2022-10-07T08:08:40.806Z,9.60
2022-10-07T08:09:40.799Z,8.50
2022-10-07T08:10:40.793Z,8.00
2022-10-07T08:11:40.792Z,7.40
2022-10-07T08:12:40.786Z,9.00
2022-10-07T08:13:40.789Z,7.10
2022-10-07T08:14:40.782Z,8.40
2022-10-07T08:15:40.800Z,10.50
2022-10-07T08:16:40.777Z,10.30
2022-10-07T08:17:40.775Z,7.30
2022-10-07T08:18:40.788Z,7.30
2022-10-07T08:19:40.773Z,8.60
2022-10-07T08:20:40.765Z,7.90
2022-10-07T08:21:40.767Z,9.40
2022-10-07T08:22:40.757Z,9.90
2022-10-07T08:23:40.755Z,7.60
2022-10-07T08:24:40.951Z,8.60
2022-10-07T08:25:40.750Z,9.20
2022-10-07T08:26:40.755Z,8.60
2022-10-07T08:27:40.745Z,9.60
2022-10-07T08:28:40.741Z,8.40
2022-10-07T08:29:40.741Z,8.20
2022-10-07T08:30:40.749Z,8.50
2022-10-07T08:31:40.734Z,9.00
2022-10-07T08:32:40.734Z,9.80
2022-10-07T08:33:40.728Z,7.80
2022-10-07T08:34:40.749Z,10.70
2022-10-07T08:35:40.722Z,9.00
2022-10-07T08:36:40.716Z,9.00
2022-10-07T08:37:40.720Z,9.40
2022-10-07T08:38:40.714Z,9.20
2022-10-07T08:39:40.715Z,10.50
2022-10-07T08:40:40.712Z,9.60
2022-10-07T08:41:40.703Z,8.60
2022-10-07T08:42:40.701Z,7.20
2022-10-07T08:43:40.698Z,9.30
2022-10-07T08:44:40.693Z,8.80
2022-10-07T08:45:40.694Z,8.60
2022-10-07T08:46:40.690Z,8.30
2022-10-07T08:47:40.690Z,7.60
2022-10-07T08:48:40.686Z,9.10
2022-10-07T08:49:40.683Z,9.00
2022-10-07T08:50:40.709Z,7.90
2022-10-07T08:51:40.677Z,6.00
2022-10-07T08:52:40.672Z,10.00
2022-10-07T08:53:40.670Z,10.90
2022-10-07T08:54:40.670Z,10.00
2022-10-07T08:55:40.665Z,6.40
2022-10-07T08:56:40.662Z,6.90
2022-10-07T08:57:40.658Z,8.20
2022-10-07T08:58:40.655Z,9.40
2022-10-07T08:59:40.655Z,9.20
2022-10-07T09:00:40.647Z,8.90
2022-10-07T09:01:40.752Z,9.80
2022-10-07T09:02:40.674Z,9.50
2022-10-07T09:03:40.640Z,10.30
2022-10-07T09:04:40.636Z,11.00
2022-10-07T09:05:40.635Z,10.50
2022-10-07T09:06:40.650Z,9.00
2022-10-07T09:07:40.626Z,11.30
2022-10-07T09:08:40.624Z,9.90
2022-10-07T09:09:40.623Z,8.90
2022-10-07T09:10:40.623Z,9.90
2022-10-07T09:11:40.643Z,11.10
2022-10-07T09:12:40.616Z,8.00
2022-10-07T09:13:40.622Z,7.40
2022-10-07T09:14:40.611Z,9.30
2022-10-07T09:15:40.698Z,9.30
2022-10-07T09:16:40.608Z,10.10
2022-10-07T09:17:40.612Z,10.30
2022-10-07T09:18:40.602Z,9.10
2022-10-07T09:19:40.606Z,9.20
2022-10-07T09:20:40.594Z,10.00
2022-10-07T09:21:40.590Z,10.50
2022-10-07T09:22:40.603Z,9.40
2022-10-07T09:23:40.585Z,10.50
2022-10-07T09:24:40.632Z,8.10
2022-10-07T09:25:40.593Z,10.70
2022-10-07T09:26:40.583Z,8.90
2022-10-07T09:27:40.576Z,11.30
2022-10-07T09:28:40.626Z,10.90
2022-10-07T09:29:40.576Z,9.90
2022-10-07T09:30:40.565Z,10.20
2022-10-07T09:31:40.564Z,10.40
2022-10-07T09:32:40.565Z,9.40
2022-10-07T09:33:40.563Z,10.30
2022-10-07T09:34:40.557Z,9.40
2022-10-07T09:35:40.552Z,10.30
2022-10-07T09:36:40.553Z,9.10
2022-10-07T09:37:40.566Z,10.90
2022-10-07T09:38:40.581Z,10.80
2022-10-07T09:39:40.542Z,8.80
2022-10-07T09:40:40.540Z,9.00
2022-10-07T09:41:40.538Z,9.20
2022-10-07T09:42:40.533Z,8.80
2022-10-07T09:43:40.534Z,9.80
2022-10-07T09:44:40.527Z,9.50
2022-10-07T09:45:40.531Z,10.80
2022-10-07T09:46:40.665Z,11.50
2022-10-07T09:47:40.538Z,8.80
2022-10-07T09:48:40.517Z,12.00
2022-10-07T09:49:40.515Z,10.10
2022-10-07T09:50:40.513Z,9.60
2022-10-07T09:51:40.512Z,8.30
2022-10-07T09:52:40.512Z,9.20
2022-10-07T09:53:40.507Z,9.10
2022-10-07T09:54:40.522Z,9.70
2022-10-07T09:55:40.514Z,9.50
2022-10-07T09:56:40.498Z,11.00
2022-10-07T09:57:40.496Z,10.30
2022-10-07T09:58:40.494Z,11.10
2022-10-07T09:59:40.513Z,9.90
2022-10-07T10:00:40.490Z,10.90
2022-10-07T10:01:40.522Z,10.10
2022-10-07T10:02:40.606Z,10.50
2022-10-07T10:03:40.533Z,10.90
2022-10-07T10:04:40.489Z,8.10
2022-10-07T10:05:40.479Z,8.50
2022-10-07T10:06:40.472Z,10.20
2022-10-07T10:07:40.474Z,10.90
2022-10-07T10:08:40.471Z,11.10
2022-10-07T10:09:40.467Z,10.10
2022-10-07T10:10:40.484Z,10.20
2022-10-07T10:11:40.461Z,9.10
2022-10-07T10:12:42.729Z,11.10
2022-10-07T10:13:40.458Z,12.20
2022-10-07T10:14:40.485Z,9.00
2022-10-07T10:15:40.522Z,8.70
2022-10-07T10:16:40.451Z,11.90
2022-10-07T10:17:40.445Z,10.40
2022-10-07T10:18:40.450Z,9.90
2022-10-07T10:19:40.440Z,9.70
2022-10-07T10:20:40.440Z,9.10
2022-10-07T10:21:40.435Z,10.70
2022-10-07T10:22:40.433Z,11.30
2022-10-07T10:23:40.429Z,8.10
2022-10-07T10:24:40.880Z,9.60
2022-10-07T10:25:40.424Z,10.60
2022-10-07T10:26:40.442Z,9.40
2022-10-07T10:27:40.419Z,10.50
2022-10-07T10:28:40.515Z,10.40
2022-10-07T10:29:40.418Z,9.50
2022-10-07T10:30:40.415Z,11.70
2022-10-07T10:31:40.444Z,10.90
2022-10-07T10:32:40.410Z,10.40
2022-10-07T10:33:40.406Z,9.80
2022-10-07T10:34:40.406Z,9.30
2022-10-07T10:35:40.406Z,10.20
2022-10-07T10:36:40.402Z,11.30
2022-10-07T10:37:40.398Z,12.60
2022-10-07T10:38:40.398Z,7.90
2022-10-07T10:39:40.390Z,9.10
2022-10-07T10:40:40.393Z,11.20
2022-10-07T10:41:40.386Z,9.30
2022-10-07T10:42:40.409Z,9.10
2022-10-07T10:43:40.384Z,9.00
2022-10-07T10:44:40.386Z,9.40
2022-10-07T10:45:40.428Z,8.50
2022-10-07T10:46:40.569Z,9.40
2022-10-07T10:47:40.377Z,9.20
2022-10-07T10:48:40.373Z,9.20
2022-10-07T10:49:40.371Z,9.60
2022-10-07T10:50:40.369Z,9.20
2022-10-07T10:51:40.365Z,8.90
2022-10-07T10:52:40.362Z,8.80
2022-10-07T10:53:40.360Z,11.80
2022-10-07T10:54:40.362Z,9.30
2022-10-07T10:55:40.354Z,9.10
2022-10-07T10:56:40.357Z,7.80
2022-10-07T10:57:40.352Z,7.90
2022-10-07T10:58:40.401Z,8.80
2022-10-07T10:59:40.348Z,8.30
2022-10-07T11:00:40.346Z,9.50
2022-10-07T11:01:40.387Z,8.00
2022-10-07T11:02:40.397Z,8.80
2022-10-07T11:03:40.336Z,9.70
2022-10-07T11:04:40.336Z,7.80
2022-10-07T11:05:40.337Z,9.60
2022-10-07T11:06:40.335Z,9.70
2022-10-07T11:07:40.328Z,9.30
2022-10-07T11:08:40.331Z,6.00
2022-10-07T11:09:40.324Z,11.10
2022-10-07T11:10:40.329Z,9.80
2022-10-07T11:11:40.319Z,9.70
2022-10-07T11:12:40.321Z,11.00
2022-10-07T11:13:40.814Z,10.10
2022-10-07T11:14:40.334Z,9.80
2022-10-07T11:15:40.314Z,7.80
2022-10-07T11:16:40.314Z,8.30
2022-10-07T11:17:40.314Z,9.30
2022-10-07T11:18:40.310Z,9.00
2022-10-07T11:19:40.310Z,9.40
2022-10-07T11:20:44.504Z,8.60
2022-10-07T11:21:40.299Z,10.20
2022-10-07T11:22:40.315Z,9.20
2022-10-07T11:23:40.299Z,7.70
2022-10-07T11:24:40.553Z,9.50
2022-10-07T11:25:40.291Z,9.50
2022-10-07T11:26:40.290Z,9.90
2022-10-07T11:27:40.287Z,9.00
2022-10-07T11:28:40.340Z,9.80
2022-10-07T11:29:40.282Z,9.90
2022-10-07T11:30:40.296Z,11.40
2022-10-07T11:31:40.388Z,10.00
2022-10-07T11:32:40.286Z,11.50
2022-10-07T11:33:40.275Z,10.00
2022-10-07T11:34:40.275Z,10.40
2022-10-07T11:35:40.268Z,12.20
2022-10-07T11:36:40.270Z,10.50
2022-10-07T11:37:40.268Z,8.10
2022-10-07T11:38:40.277Z,8.70
2022-10-07T11:39:40.264Z,10.30
2022-10-07T11:40:40.271Z,10.60
2022-10-07T11:41:40.261Z,9.20
2022-10-07T11:42:40.259Z,10.30
2022-10-07T11:43:40.253Z,7.70
2022-10-07T11:44:40.255Z,9.70
2022-10-07T11:45:40.254Z,10.50
2022-10-07T11:46:40.329Z,10.20
2022-10-07T11:47:40.252Z,10.40
2022-10-07T11:48:40.244Z,8.10
2022-10-07T11:49:40.253Z,11.20
2022-10-07T11:50:40.243Z,10.30
2022-10-07T11:51:40.239Z,8.80
2022-10-07T11:52:40.237Z,8.50
2022-10-07T11:53:40.231Z,8.80
2022-10-07T11:54:40.234Z,9.20
2022-10-07T11:55:40.227Z,12.00
2022-10-07T11:56:40.227Z,9.40
2022-10-07T11:57:40.229Z,10.30
2022-10-07T11:58:40.225Z,8.90
2022-10-07T11:59:40.222Z,7.30
2022-10-07T12:00:40.244Z,9.50
2022-10-07T12:01:40.269Z,9.40
2022-10-07T12:02:40.285Z,10.60
2022-10-07T12:03:40.215Z,11.20
2022-10-07T12:04:40.217Z,9.30
2022-10-07T12:05:40.209Z,8.80
2022-10-07T12:06:40.208Z,8.40
2022-10-07T12:07:40.203Z,9.60
2022-10-07T12:08:40.203Z,10.90
2022-10-07T12:09:40.200Z,10.40
2022-10-07T12:10:40.204Z,9.80
2022-10-07T12:11:40.195Z,8.10
2022-10-07T12:12:40.210Z,7.90
2022-10-07T12:13:40.199Z,9.10
2022-10-07T12:14:40.194Z,11.90
2022-10-07T12:15:40.192Z,9.10
2022-10-07T12:16:40.254Z,9.30
2022-10-07T12:17:40.186Z,10.60
2022-10-07T12:18:40.205Z,9.40
2022-10-07T12:19:40.183Z,7.80
2022-10-07T12:20:40.178Z,9.40
2022-10-07T12:21:40.177Z,7.30
2022-10-07T12:22:40.180Z,10.80
2022-10-07T12:23:40.174Z,9.50
2022-10-07T12:24:40.624Z,7.20
2022-10-07T12:25:40.170Z,8.30
2022-10-07T12:26:40.164Z,9.00
2022-10-07T12:27:40.165Z,8.60
2022-10-07T12:28:40.403Z,9.40
2022-10-07T12:29:40.177Z,9.00
2022-10-07T12:30:40.171Z,8.90
2022-10-07T12:31:40.232Z,9.10
2022-10-07T12:32:40.163Z,8.20
2022-10-07T12:33:40.155Z,9.00
2022-10-07T12:34:40.169Z,9.90
2022-10-07T12:35:40.147Z,8.30
2022-10-07T12:36:40.147Z,7.70
2022-10-07T12:37:40.147Z,10.80
2022-10-07T12:38:40.144Z,8.00
2022-10-07T12:39:40.143Z,7.30
2022-10-07T12:40:40.141Z,8.30
2022-10-07T12:41:40.658Z,10.10
2022-10-07T12:42:40.134Z,8.90
2022-10-07T12:43:40.136Z,7.60
2022-10-07T12:44:40.134Z,8.10
2022-10-07T12:45:40.176Z,7.00
2022-10-07T12:46:40.138Z,7.30
2022-10-07T12:47:40.124Z,11.00
2022-10-07T12:48:40.125Z,6.80
2022-10-07T12:49:40.121Z,7.40
2022-10-07T12:50:40.137Z,9.10
2022-10-07T12:51:40.120Z,9.30
2022-10-07T12:52:40.119Z,9.80
2022-10-07T12:53:40.120Z,9.70
2022-10-07T12:54:40.115Z,7.80
2022-10-07T12:55:40.109Z,9.80
2022-10-07T12:56:40.111Z,9.10
2022-10-07T12:57:40.119Z,8.70
2022-10-07T12:58:40.103Z,8.30
2022-10-07T12:59:40.111Z,8.30
2022-10-07T13:00:40.104Z,7.90
2022-10-07T13:01:40.241Z,6.90
2022-10-07T13:02:40.132Z,7.60
2022-10-07T13:03:40.102Z,8.50
2022-10-07T13:04:40.099Z,7.40
2022-10-07T13:05:40.094Z,8.40
2022-10-07T13:06:40.113Z,6.90
2022-10-07T13:07:40.091Z,6.60
2022-10-07T13:08:40.089Z,8.30
2022-10-07T13:09:40.097Z,5.50
2022-10-07T13:10:40.086Z,6.00
2022-10-07T13:11:43.144Z,8.50
2022-10-07T13:12:40.083Z,7.20
2022-10-07T13:13:40.077Z,7.20
2022-10-07T13:14:40.080Z,6.80
2022-10-07T13:15:40.081Z,7.10